Time;durP1;ratioP1;P1;durP2;ratioP2;P2;SDS_P1;SDS_P2;PMS_P1;PMS_P2;Temp;Humidity;BMP_temperature;BMP_pressure;BME280_temperature;BME280_humidity;BME280_pressure;Samples;Min_cycle;Max_cycle;Signal;HPM_P1;HPM_P2
2023/12/03 00:00:14;;;;;;;6.33;5.60;;;3.20;75.70;1.20;96502.00;;;;5065798;28;20522;-84
2023/12/03 00:02:42;;;;;;;6.13;5.40;;;3.20;75.80;1.20;96509.00;;;;5068878;28;20501;-83
2023/12/03 00:05:11;;;;;;;5.53;5.03;;;3.30;75.80;1.20;96516.00;;;;5065260;28;20463;-83
2023/12/03 00:07:39;;;;;;;5.80;5.30;;;3.20;75.50;1.20;96522.00;;;;5069814;28;20442;-82
2023/12/03 00:10:07;;;;;;;6.03;5.43;;;3.20;75.50;1.20;96524.00;;;;5063162;28;20576;-83
2023/12/03 00:12:36;;;;;;;5.77;5.20;;;3.20;75.90;1.20;96531.00;;;;5067353;28;20510;-82
2023/12/03 00:15:06;;;;;;;5.83;5.23;;;3.30;75.90;1.20;96520.00;;;;5064652;28;20455;-83
2023/12/03 00:17:33;;;;;;;5.43;4.93;;;3.30;75.80;1.20;96530.00;;;;5068204;28;20818;-82
2023/12/03 00:20:00;;;;;;;6.23;5.53;;;3.40;75.70;1.20;96529.00;;;;5072669;28;20990;-83
2023/12/03 00:22:28;;;;;;;6.30;5.37;;;3.30;75.90;1.20;96530.00;;;;5062622;28;20474;-84
2023/12/03 00:24:55;;;;;;;5.87;5.37;;;3.30;75.80;1.30;96532.00;;;;5072110;28;20474;-84
2023/12/03 00:27:22;;;;;;;5.63;5.07;;;3.30;76.40;1.30;96528.00;;;;5066411;28;20979;-83
2023/12/03 00:29:49;;;;;;;5.30;4.80;;;3.30;75.40;1.30;96527.00;;;;5073351;28;20546;-81
2023/12/03 00:32:17;;;;;;;5.97;5.37;;;3.30;75.60;1.30;96536.00;;;;5076911;28;20459;-84
2023/12/03 00:34:44;;;;;;;5.77;5.20;;;3.30;75.80;1.30;96534.00;;;;5069616;28;20457;-83
2023/12/03 00:37:12;;;;;;;6.13;5.10;;;3.30;75.90;1.30;96538.00;;;;5080027;28;20497;-83
2023/12/03 00:39:39;;;;;;;7.13;6.03;;;3.30;75.50;1.30;96544.00;;;;5081650;28;20935;-83
2023/12/03 00:42:06;;;;;;;5.77;5.20;;;3.30;75.20;1.30;96550.00;;;;5066675;28;20509;-83
2023/12/03 00:44:33;;;;;;;5.13;4.63;;;3.20;75.40;1.30;96554.00;;;;5073305;28;20489;-82
2023/12/03 00:47:01;;;;;;;5.73;5.23;;;3.30;75.70;1.30;96549.00;;;;5078686;28;20496;-82
2023/12/03 00:49:29;;;;;;;5.40;4.80;;;3.30;75.90;1.30;96554.00;;;;5073719;28;20830;-83
2023/12/03 00:51:56;;;;;;;5.90;5.27;;;3.30;75.90;1.30;96564.00;;;;5065219;28;20438;-82
2023/12/03 00:54:23;;;;;;;6.57;5.30;;;3.30;75.90;1.30;96562.00;;;;5067756;28;20527;-83
2023/12/03 00:56:50;;;;;;;5.50;5.00;;;3.30;76.10;1.30;96560.00;;;;5063817;28;20435;-83
2023/12/03 00:59:17;;;;;;;6.00;5.40;;;3.30;76.10;1.30;96570.00;;;;5068316;28;20446;-83
2023/12/03 01:01:44;;;;;;;6.30;5.70;;;3.30;76.30;1.30;96568.00;;;;5070624;28;20435;-82
2023/12/03 01:04:11;;;;;;;5.97;5.37;;;3.30;75.90;1.30;96578.00;;;;5075322;28;20461;-83
2023/12/03 01:06:40;;;;;;;6.13;5.50;;;3.30;75.90;1.30;96574.00;;;;5075242;28;20458;-84
2023/12/03 01:09:08;;;;;;;5.30;4.80;;;3.30;75.90;1.30;96580.00;;;;5075647;28;20601;-83
2023/12/03 01:11:40;;;;;;;5.30;4.80;;;3.30;75.80;1.30;96595.00;;;;5074782;28;20863;-83
2023/12/03 01:14:07;;;;;;;6.07;5.47;;;3.30;75.70;1.30;96595.00;;;;5067237;28;20447;-82
2023/12/03 01:16:35;;;;;;;6.73;5.57;;;3.30;75.80;1.30;96589.00;;;;5060323;28;20462;-82
2023/12/03 01:19:02;;;;;;;5.70;5.10;;;3.30;75.80;1.30;96596.00;;;;5070234;28;20887;-84
2023/12/03 01:21:29;;;;;;;6.00;5.43;;;3.30;75.80;1.30;96594.00;;;;5068470;28;20549;-83
2023/12/03 01:23:57;;;;;;;6.40;5.77;;;3.30;75.90;1.30;96600.00;;;;5070575;28;20553;-83
2023/12/03 01:26:24;;;;;;;5.70;5.20;;;3.30;75.80;1.30;96604.00;;;;5060474;28;20518;-84
2023/12/03 01:28:52;;;;;;;6.33;5.50;;;3.30;75.60;1.30;96611.00;;;;5070468;28;21075;-84
2023/12/03 01:31:19;;;;;;;5.27;4.80;;;3.30;75.80;1.30;96608.00;;;;5075241;28;20442;-83
2023/12/03 01:33:47;;;;;;;6.00;5.40;;;3.30;76.30;1.30;96615.00;;;;5063055;28;20435;-83
2023/12/03 01:36:14;;;;;;;6.73;6.03;;;3.30;75.40;1.30;96617.00;;;;5072395;28;20909;-83
2023/12/03 01:38:41;;;;;;;6.27;5.67;;;3.30;75.60;1.30;96616.00;;;;5067164;28;20554;-84
2023/12/03 01:41:10;;;;;;;6.00;5.40;;;3.30;75.70;1.30;96625.00;;;;5072760;28;20983;-83
2023/12/03 01:43:49;;;;;;;6.03;5.43;;;3.30;75.20;1.20;96627.00;;;;5078117;28;20446;-83
2023/12/03 01:46:16;;;;;;;6.10;5.50;;;3.30;74.70;1.20;96635.00;;;;5067620;28;20815;-83
2023/12/03 01:48:44;;;;;;;6.00;5.40;;;3.20;74.70;1.20;96629.00;;;;5074653;28;20453;-83
2023/12/03 01:51:12;;;;;;;5.83;5.27;;;3.20;74.60;1.20;96638.00;;;;5065519;28;20454;-83
2023/12/03 01:53:40;;;;;;;5.63;5.13;;;3.20;75.00;1.20;96640.00;;;;5067173;28;20442;-83
2023/12/03 01:56:10;;;;;;;6.13;4.87;;;3.20;74.90;1.20;96646.00;;;;5068016;28;20514;-83
2023/12/03 01:58:37;;;;;;;5.60;5.10;;;3.20;74.80;1.10;96632.00;;;;5072029;28;20449;-84
2023/12/03 02:01:06;;;;;;;5.73;5.20;;;3.20;75.00;1.20;96637.00;;;;5068710;28;20514;-83
2023/12/03 02:03:33;;;;;;;6.40;5.77;;;3.20;75.00;1.20;96639.00;;;;5062871;28;21200;-83
2023/12/03 02:06:05;;;;;;;6.03;5.43;;;3.10;74.70;1.20;96637.00;;;;5064513;28;20451;-83
2023/12/03 02:08:32;;;;;;;6.03;5.43;;;3.10;74.90;1.20;96636.00;;;;5073293;28;20488;-82
2023/12/03 02:11:00;;;;;;;6.47;5.67;;;3.20;74.80;1.10;96638.00;;;;5070754;28;20514;-83
2023/12/03 02:13:32;;;;;;;6.63;5.93;;;3.10;74.60;1.10;96645.00;;;;5070650;28;20494;-82
2023/12/03 02:16:00;;;;;;;5.93;5.37;;;3.10;75.40;1.10;96644.00;;;;5075358;28;20463;-83
2023/12/03 02:18:28;;;;;;;5.10;4.60;;;3.10;74.90;1.10;96647.00;;;;5064261;28;20518;-82
2023/12/03 02:20:56;;;;;;;4.87;4.40;;;3.20;75.00;1.10;96653.00;;;;5073775;28;20947;-83
2023/12/03 02:23:28;;;;;;;5.10;4.53;;;3.10;74.80;1.00;96656.00;;;;5066636;28;20438;-83
2023/12/03 02:25:55;;;;;;;4.50;4.10;;;3.50;74.90;0.90;96654.00;;;;5069389;28;20902;-84
2023/12/03 02:28:22;;;;;;;4.50;4.10;;;3.10;74.30;0.90;96653.00;;;;5076939;28;20517;-83
2023/12/03 02:30:49;;;;;;;5.13;4.63;;;3.00;73.90;0.90;96655.00;;;;5066627;28;20573;-82
2023/12/03 02:33:17;;;;;;;4.30;3.90;;;3.00;73.90;0.90;96655.00;;;;5070556;28;20466;-83
2023/12/03 02:35:44;;;;;;;4.70;4.30;;;3.00;73.80;0.80;96656.00;;;;5070355;28;20881;-82
2023/12/03 02:38:11;;;;;;;4.37;3.97;;;2.90;73.50;0.70;96629.00;;;;5066256;28;20530;-83
2023/12/03 02:40:39;;;;;;;4.30;3.90;;;2.90;73.70;0.70;96657.00;;;;5068091;28;20538;-84
2023/12/03 02:43:06;;;;;;;4.00;3.60;;;2.90;74.00;0.80;96652.00;;;;5070883;28;20517;-84
2023/12/03 02:45:33;;;;;;;3.70;3.40;;;2.90;74.40;0.80;96665.00;;;;5059786;28;20459;-84
2023/12/03 02:48:00;;;;;;;4.10;3.40;;;2.90;74.50;0.80;96669.00;;;;5069926;28;20470;-83
2023/12/03 02:50:28;;;;;;;3.63;3.33;;;2.90;74.60;0.80;96659.00;;;;5065522;28;20553;-83
2023/12/03 02:52:55;;;;;;;4.00;3.70;;;2.90;74.40;0.80;96662.00;;;;5071515;28;20435;-83
2023/12/03 02:55:22;;;;;;;3.80;3.50;;;2.80;74.20;0.80;96664.00;;;;5062442;28;21086;-84
2023/12/03 02:57:50;;;;;;;3.80;3.40;;;2.80;74.30;0.70;96665.00;;;;5065449;28;20458;-83
2023/12/03 03:00:18;;;;;;;4.57;4.07;;;2.80;73.70;0.60;96664.00;;;;5072163;28;20920;-84
2023/12/03 03:02:46;;;;;;;4.40;3.77;;;2.80;73.40;0.60;96667.00;;;;5065276;28;20521;-82
2023/12/03 03:05:13;;;;;;;3.90;3.60;;;2.80;73.40;0.60;96653.00;;;;5066712;28;20494;-83
2023/12/03 03:07:40;;;;;;;3.90;3.47;;;2.70;73.20;0.60;96663.00;;;;5075638;28;20434;-83
2023/12/03 03:10:10;;;;;;;3.80;3.50;;;2.70;73.40;0.50;96656.00;;;;5063458;28;20486;-83
2023/12/03 03:12:37;;;;;;;4.30;3.90;;;2.70;73.30;0.50;96665.00;;;;5062670;28;20439;-83
2023/12/03 03:15:07;;;;;;;3.90;3.60;;;2.80;73.50;0.50;96665.00;;;;5070143;28;20452;-83
2023/12/03 03:17:34;;;;;;;3.93;3.53;;;2.60;73.00;0.50;96671.00;;;;5071025;28;20518;-83
2023/12/03 03:20:01;;;;;;;4.50;4.10;;;2.60;73.20;0.50;96674.00;;;;5067195;28;20478;-84
2023/12/03 03:22:28;;;;;;;3.70;3.40;;;2.60;73.30;0.50;96677.00;;;;5073211;28;20427;-83
2023/12/03 03:24:55;;;;;;;4.37;3.97;;;2.60;73.40;0.50;96673.00;;;;5071220;28;20576;-84
2023/12/03 03:27:23;;;;;;;4.57;4.17;;;2.60;73.70;0.50;96674.00;;;;5067118;28;20469;-82
2023/12/03 03:29:50;;;;;;;4.33;3.93;;;2.60;73.70;0.50;96678.00;;;;5070169;28;20483;-83
2023/12/03 03:32:18;;;;;;;4.13;3.83;;;2.60;73.60;0.50;96680.00;;;;5069209;28;21028;-84
2023/12/03 03:34:46;;;;;;;4.00;3.63;;;2.50;73.50;0.40;96689.00;;;;5069049;28;20486;-83
2023/12/03 03:37:13;;;;;;;4.03;3.73;;;2.50;73.50;0.40;96699.00;;;;5066445;28;20434;-83
2023/12/03 03:39:40;;;;;;;4.40;4.00;;;2.50;73.70;0.40;96685.00;;;;5072942;28;20887;-84
2023/12/03 03:42:07;;;;;;;4.30;3.90;;;2.50;73.40;0.40;96685.00;;;;5067756;28;21034;-83
2023/12/03 03:44:34;;;;;;;3.80;3.50;;;2.50;73.30;0.40;96675.00;;;;5072507;28;20459;-83
2023/12/03 03:47:01;;;;;;;4.03;3.73;;;2.50;73.30;0.40;96677.00;;;;5068863;28;20479;-83
2023/12/03 03:49:31;;;;;;;4.50;3.87;;;2.50;73.60;0.40;96684.00;;;;5075087;28;20518;-83
2023/12/03 03:51:58;;;;;;;4.10;3.80;;;2.50;73.60;0.40;96680.00;;;;5070586;28;20488;-83
2023/12/03 03:54:25;;;;;;;4.33;3.93;;;2.50;73.70;0.40;96687.00;;;;5067311;28;20473;-84
2023/12/03 03:56:52;;;;;;;4.13;3.73;;;2.50;73.40;0.40;96689.00;;;;5070055;28;20455;-83
2023/12/03 03:59:19;;;;;;;4.60;4.20;;;2.80;73.90;0.40;96680.00;;;;5072471;28;20445;-85
2023/12/03 04:01:46;;;;;;;4.50;4.10;;;2.40;73.30;0.30;96684.00;;;;5064898;28;20465;-82
2023/12/03 04:04:14;;;;;;;4.80;4.40;;;2.40;73.30;0.30;96699.00;;;;5062036;28;20992;-83
2023/12/03 04:06:45;;;;;;;4.20;3.90;;;2.40;73.30;0.30;96701.00;;;;5064875;28;20518;-83
2023/12/03 04:09:12;;;;;;;5.20;4.70;;;2.40;73.10;0.30;96707.00;;;;5064539;28;20450;-82
2023/12/03 04:11:40;;;;;;;4.57;4.07;;;2.40;73.10;0.30;96698.00;;;;5062114;28;20485;-83
2023/12/03 04:14:08;;;;;;;5.57;5.00;;;2.40;73.10;0.30;96701.00;;;;5062898;28;20482;-84
2023/12/03 04:16:35;;;;;;;5.07;4.67;;;2.40;73.30;0.30;96699.00;;;;5060948;28;20462;-81
2023/12/03 04:19:03;;;;;;;4.87;4.40;;;2.30;72.90;0.30;96695.00;;;;5064969;28;20881;-84
2023/12/03 04:21:32;;;;;;;5.27;4.80;;;3.10;73.60;0.30;96694.00;;;;5060510;28;20443;-83
2023/12/03 04:24:01;;;;;;;5.90;4.90;;;2.30;73.30;0.20;96710.00;;;;5064952;28;20493;-84
2023/12/03 04:26:28;;;;;;;5.50;5.00;;;2.30;73.50;0.20;96707.00;;;;5057752;28;20807;-85
2023/12/03 04:28:55;;;;;;;5.13;4.63;;;2.30;73.80;0.20;96704.00;;;;5069952;28;20491;-83
2023/12/03 04:31:26;;;;;;;4.80;4.40;;;2.20;73.40;0.10;96712.00;;;;5068661;28;20573;-85
2023/12/03 04:33:55;;;;;;;5.77;5.17;;;2.20;73.60;0.10;96710.00;;;;5057818;28;20451;-84
2023/12/03 04:36:24;;;;;;;5.33;4.83;;;2.20;73.40;0.10;96725.00;;;;5063180;28;20474;-84
2023/12/03 04:38:52;;;;;;;5.57;5.03;;;2.20;73.10;0.10;96714.00;;;;5060960;28;20530;-84
2023/12/03 04:41:21;;;;;;;6.73;5.43;;;2.20;73.00;0.10;96721.00;;;;5063601;28;20442;-83
2023/12/03 04:43:48;;;;;;;5.73;5.23;;;2.20;73.20;0.10;96723.00;;;;5044079;28;20427;-84
2023/12/03 04:46:15;;;;;;;6.30;5.70;;;2.20;73.60;0.10;96730.00;;;;5062056;28;20434;-84
2023/12/03 04:48:42;;;;;;;6.70;5.83;;;2.50;73.90;0.10;96734.00;;;;5066719;28;20433;-84
2023/12/03 04:51:13;;;;;;;6.83;6.17;;;2.20;73.70;0.10;96733.00;;;;5054706;28;20482;-84
2023/12/03 04:53:40;;;;;;;7.13;6.43;;;2.20;73.80;0.10;96747.00;;;;5061031;28;20435;-84
2023/12/03 04:56:09;;;;;;;7.10;6.30;;;2.20;74.10;0.20;96745.00;;;;5055724;28;20435;-84
2023/12/03 04:58:38;;;;;;;7.33;6.43;;;2.20;74.10;0.20;96748.00;;;;5061123;28;21178;-84
2023/12/03 05:01:05;;;;;;;7.73;6.93;;;2.20;73.70;0.20;96750.00;;;;5060454;28;20473;-84
2023/12/03 05:03:32;;;;;;;9.03;8.13;;;2.20;73.80;0.20;96753.00;;;;5055690;28;20917;-84
2023/12/03 05:05:59;;;;;;;9.40;8.40;;;2.20;73.80;0.20;96761.00;;;;5060046;28;20461;-84
2023/12/03 05:08:26;;;;;;;7.03;6.33;;;2.20;74.00;0.20;96758.00;;;;5061797;28;20510;-84
2023/12/03 05:10:53;;;;;;;6.90;6.20;;;2.20;74.20;0.20;96759.00;;;;5062979;28;21192;-84
2023/12/03 05:13:20;;;;;;;7.13;6.00;;;2.20;74.20;0.20;96768.00;;;;5071649;28;20463;-84
2023/12/03 05:15:49;;;;;;;10.00;9.00;;;2.40;73.80;0.10;96764.00;;;;5057810;28;21081;-85
2023/12/03 05:18:16;;;;;;;12.03;10.73;;;2.20;74.20;0.10;96757.00;;;;5069853;28;20461;-84
2023/12/03 05:20:43;;;;;;;8.20;7.37;;;2.20;73.50;0.10;96760.00;;;;5069103;28;20438;-84
2023/12/03 05:23:12;;;;;;;8.60;7.40;;;2.20;73.50;0.10;96759.00;;;;5058061;28;20448;-84
2023/12/03 05:25:39;;;;;;;8.10;7.30;;;2.20;73.70;0.00;96753.00;;;;5064831;28;20868;-83
2023/12/03 05:28:06;;;;;;;7.90;7.10;;;2.20;73.60;0.10;96760.00;;;;5063081;28;20517;-84
2023/12/03 05:30:33;;;;;;;9.43;7.70;;;2.20;73.70;0.00;96755.00;;;;5064668;28;20578;-84
2023/12/03 05:33:01;;;;;;;7.27;6.47;;;2.20;73.60;0.10;96758.00;;;;5062323;28;20451;-84
2023/12/03 05:35:28;;;;;;;9.57;7.50;;;2.20;73.70;0.10;96764.00;;;;5054437;28;20455;-84
2023/12/03 05:37:55;;;;;;;8.10;7.30;;;2.10;73.80;0.10;96760.00;;;;5065564;28;20913;-83
2023/12/03 05:40:23;;;;;;;7.97;7.10;;;2.10;73.80;0.10;96769.00;;;;5060303;28;21173;-84
2023/12/03 05:42:50;;;;;;;8.57;7.57;;;2.20;74.00;0.10;96766.00;;;;5061165;28;20445;-84
2023/12/03 05:45:17;;;;;;;8.03;7.00;;;2.20;74.00;0.10;96769.00;;;;5053403;28;20451;-84
2023/12/03 05:47:44;;;;;;;7.90;7.03;;;2.20;74.00;0.10;96777.00;;;;5059565;28;20454;-84
2023/12/03 05:50:13;;;;;;;7.53;6.50;;;2.20;73.90;0.10;96774.00;;;;5065134;28;20490;-84
2023/12/03 05:52:40;;;;;;;8.10;7.17;;;2.40;74.10;0.20;96781.00;;;;5059924;28;20955;-84
2023/12/03 05:55:08;;;;;;;9.47;7.40;;;2.20;74.00;0.20;96781.00;;;;5057734;28;20973;-85
2023/12/03 05:57:35;;;;;;;7.97;6.80;;;2.20;73.80;0.10;96776.00;;;;5059906;28;21007;-84
2023/12/03 06:00:04;;;;;;;8.40;7.40;;;2.20;73.90;0.10;96783.00;;;;5067313;28;20470;-84
2023/12/03 06:02:34;;;;;;;7.87;6.80;;;2.30;74.00;0.10;96774.00;;;;5062699;28;20537;-85
2023/12/03 06:05:02;;;;;;;10.87;7.93;;;2.20;73.60;0.10;96781.00;;;;5057468;28;20465;-84
2023/12/03 06:07:30;;;;;;;8.97;7.53;;;2.20;73.90;0.10;96775.00;;;;5064708;28;20492;-84
2023/12/03 06:09:57;;;;;;;8.63;7.27;;;2.20;73.80;0.20;96782.00;;;;5065258;28;21008;-85
2023/12/03 06:12:24;;;;;;;8.97;7.23;;;2.20;73.60;0.20;96784.00;;;;5068421;28;20430;-84
2023/12/03 06:14:52;;;;;;;8.97;7.77;;;2.80;74.30;0.20;96790.00;;;;5063389;28;20544;-85
2023/12/03 06:17:19;;;;;;;8.47;7.40;;;2.30;74.10;0.20;96790.00;;;;5068621;28;20505;-84
2023/12/03 06:19:46;;;;;;;8.33;7.50;;;2.30;74.00;0.20;96797.00;;;;5062770;28;20433;-84
2023/12/03 06:22:13;;;;;;;8.53;7.53;;;2.30;74.00;0.20;96797.00;;;;5063171;28;20530;-83
2023/12/03 06:24:42;;;;;;;8.50;7.60;;;2.30;73.50;0.10;96780.00;;;;5065733;28;20528;-84
2023/12/03 06:27:09;;;;;;;9.37;7.70;;;2.20;73.40;0.10;96788.00;;;;5057236;28;20895;-85
2023/12/03 06:29:36;;;;;;;8.90;7.03;;;2.20;73.60;0.10;96785.00;;;;5068748;28;20549;-85
2023/12/03 06:32:03;;;;;;;9.97;7.80;;;2.20;73.20;0.00;96789.00;;;;5057498;28;21023;-84
2023/12/03 06:34:30;;;;;;;11.03;8.67;;;2.20;73.40;0.00;96788.00;;;;5059495;28;20549;-85
2023/12/03 06:36:59;;;;;;;9.97;7.90;;;2.20;73.60;0.00;96790.00;;;;5065932;28;20514;-85
2023/12/03 06:39:26;;;;;;;8.97;7.73;;;2.20;73.80;0.00;96796.00;;;;5058403;28;20438;-83
2023/12/03 06:41:55;;;;;;;9.60;7.97;;;2.10;74.50;0.00;96788.00;;;;5053564;28;20435;-84
2023/12/03 06:44:22;;;;;;;9.87;8.50;;;2.10;73.60;0.00;96800.00;;;;5059731;28;20459;-85
2023/12/03 06:46:49;;;;;;;9.37;7.93;;;2.10;73.40;0.00;96795.00;;;;5058336;28;20999;-84
2023/12/03 06:49:16;;;;;;;10.90;8.33;;;2.10;73.30;0.00;96797.00;;;;5064220;28;20530;-84
2023/12/03 06:51:43;;;;;;;11.53;7.77;;;2.10;73.40;0.00;96812.00;;;;5058276;28;20513;-84
2023/12/03 06:54:10;;;;;;;10.13;8.03;;;2.10;73.30;0.00;96800.00;;;;5059206;28;20764;-85
2023/12/03 06:56:37;;;;;;;10.27;8.17;;;2.10;73.40;-0.10;96816.00;;;;5067274;28;20517;-85
2023/12/03 06:59:06;;;;;;;10.27;8.07;;;2.10;73.40;-0.10;96828.00;;;;5064267;28;20517;-85
2023/12/03 07:01:33;;;;;;;9.50;7.90;;;2.00;73.20;-0.10;96842.00;;;;5062521;28;20501;-84
2023/12/03 07:04:00;;;;;;;9.30;8.00;;;2.00;73.20;-0.10;96836.00;;;;5061815;28;20477;-85
2023/12/03 07:06:28;;;;;;;10.60;8.70;;;2.00;73.20;-0.10;96842.00;;;;5067797;28;20806;-85
2023/12/03 07:08:55;;;;;;;13.47;9.53;;;2.00;73.20;-0.10;96854.00;;;;5066577;28;20856;-85
2023/12/03 07:11:22;;;;;;;12.37;9.57;;;2.00;73.30;-0.10;96846.00;;;;5063033;28;20570;-85
2023/12/03 07:13:49;;;;;;;14.30;10.50;;;2.00;73.00;-0.20;96854.00;;;;5064607;28;20470;-83
2023/12/03 07:16:18;;;;;;;11.97;9.33;;;1.90;72.80;-0.20;96857.00;;;;5052557;28;20515;-84
2023/12/03 07:18:45;;;;;;;11.20;8.30;;;1.90;72.90;-0.20;96851.00;;;;5066853;28;20513;-84
2023/12/03 07:21:12;;;;;;;10.30;8.50;;;1.90;73.00;-0.30;96851.00;;;;5052879;28;20481;-84
2023/12/03 07:23:39;;;;;;;9.40;7.90;;;1.90;72.90;-0.30;96850.00;;;;5056607;28;20522;-83
2023/12/03 07:26:10;;;;;;;9.00;7.87;;;1.90;73.10;-0.30;96857.00;;;;5065162;28;20446;-83
2023/12/03 07:28:37;;;;;;;10.07;8.23;;;1.80;73.10;-0.30;96858.00;;;;5061325;28;20436;-83
2023/12/03 07:31:05;;;;;;;9.33;7.73;;;1.80;73.10;-0.30;96854.00;;;;5062398;28;20491;-83
2023/12/03 07:33:34;;;;;;;9.13;7.70;;;1.80;72.90;-0.40;96858.00;;;;5053623;28;20442;-85
2023/12/03 07:36:01;;;;;;;11.43;7.93;;;1.80;72.90;-0.40;96864.00;;;;5065839;28;20447;-87
2023/12/03 07:38:29;;;;;;;9.93;8.40;;;1.80;73.10;-0.40;96864.00;;;;5065644;28;20517;-86
2023/12/03 07:40:56;;;;;;;10.87;7.97;;;1.80;73.10;-0.40;96867.00;;;;5057571;28;20817;-87
2023/12/03 07:43:24;;;;;;;10.03;8.03;;;1.90;73.00;-0.40;96864.00;;;;5064278;28;20433;-87
2023/12/03 07:45:51;;;;;;;10.43;8.43;;;1.80;73.80;-0.40;96871.00;;;;5057277;28;20546;-87
2023/12/03 07:48:18;;;;;;;9.87;8.53;;;1.80;73.50;-0.40;96869.00;;;;5065454;28;20533;-87
2023/12/03 07:50:46;;;;;;;11.33;9.03;;;1.80;72.80;-0.40;96875.00;;;;5065133;28;20537;-86
2023/12/03 07:53:13;;;;;;;11.90;9.10;;;1.80;72.90;-0.40;96871.00;;;;5067247;28;20521;-87
2023/12/03 07:55:40;;;;;;;11.83;9.57;;;1.80;72.90;-0.40;96867.00;;;;5061817;28;20545;-87
2023/12/03 07:58:09;;;;;;;12.97;9.63;;;1.80;73.00;-0.40;96871.00;;;;5057671;28;20519;-85
2023/12/03 08:00:40;;;;;;;12.50;9.30;;;1.90;73.00;-0.40;96872.00;;;;5065194;28;20443;-87
2023/12/03 08:03:07;;;;;;;10.27;8.17;;;1.80;72.80;-0.40;96873.00;;;;5065824;28;20526;-86
2023/12/03 08:05:34;;;;;;;12.03;9.10;;;1.80;72.70;-0.40;96871.00;;;;5063959;28;20562;-87
2023/12/03 08:08:02;;;;;;;11.30;8.87;;;1.80;73.40;-0.40;96873.00;;;;5055267;28;20434;-86
2023/12/03 08:10:29;;;;;;;10.80;8.70;;;1.80;72.60;-0.40;96873.00;;;;5053298;28;20498;-87
2023/12/03 08:12:56;;;;;;;12.77;8.80;;;3.10;73.70;-0.30;96868.00;;;;5056906;28;20478;-87
2023/12/03 08:15:23;;;;;;;12.97;9.60;;;1.80;73.00;-0.30;96878.00;;;;5057680;28;20496;-87
2023/12/03 08:17:50;;;;;;;12.27;8.90;;;1.90;73.20;-0.30;96898.00;;;;5055097;28;20467;-87
2023/12/03 08:20:17;;;;;;;11.70;9.43;;;1.90;73.20;-0.20;96890.00;;;;5059084;28;20500;-87
2023/12/03 08:22:44;;;;;;;13.07;9.40;;;1.90;73.20;-0.20;96889.00;;;;5061779;28;20534;-87
2023/12/03 08:25:14;;;;;;;12.97;9.73;;;2.00;73.20;-0.10;96896.00;;;;5055224;28;20534;-87
2023/12/03 08:27:42;;;;;;;12.30;9.43;;;2.00;73.30;-0.10;96893.00;;;;5063994;28;20442;-87
2023/12/03 08:30:10;;;;;;;11.80;9.53;;;2.00;73.20;0.00;96894.00;;;;5059565;28;20443;-87
2023/12/03 08:32:38;;;;;;;11.97;9.10;;;2.10;73.50;0.00;96889.00;;;;5064855;28;20561;-86
2023/12/03 08:35:06;;;;;;;11.57;9.60;;;2.10;73.50;0.00;96884.00;;;;5056838;28;21030;-85
2023/12/03 08:37:33;;;;;;;12.30;9.33;;;2.10;73.40;0.10;96905.00;;;;5067565;28;20517;-86
2023/12/03 08:40:01;;;;;;;13.53;9.87;;;2.20;73.50;0.10;96904.00;;;;5057865;28;20504;-86
2023/12/03 08:42:29;;;;;;;11.77;9.30;;;2.20;74.20;0.10;96902.00;;;;5059403;28;20462;-85
2023/12/03 08:44:56;;;;;;;11.27;9.37;;;2.20;73.30;0.20;96908.00;;;;5063273;28;20542;-86
2023/12/03 08:47:23;;;;;;;12.33;9.47;;;2.50;73.40;0.20;96914.00;;;;5072687;28;20509;-85
2023/12/03 08:49:51;;;;;;;13.90;10.60;;;2.30;73.50;0.20;96912.00;;;;5074580;28;20446;-86
2023/12/03 08:52:18;;;;;;;14.73;10.50;;;3.60;74.60;0.30;96926.00;;;;5058688;28;21105;-85
2023/12/03 08:54:45;;;;;;;13.63;9.73;;;2.40;73.90;0.30;96929.00;;;;5066066;28;20990;-84
2023/12/03 08:57:12;;;;;;;12.40;9.73;;;2.30;73.80;0.40;96925.00;;;;5059746;28;20432;-86
2023/12/03 08:59:40;;;;;;;12.93;10.27;;;2.40;74.00;0.40;96919.00;;;;5061086;28;20510;-86
2023/12/03 09:02:07;;;;;;;14.07;10.77;;;2.40;73.90;0.50;96913.00;;;;5071907;28;20517;-86
2023/12/03 09:04:37;;;;;;;12.53;10.33;;;2.50;73.90;0.50;96924.00;;;;5065321;28;20900;-86
2023/12/03 09:07:04;;;;;;;14.73;10.60;;;2.70;74.30;0.60;96931.00;;;;5062333;28;20987;-86
2023/12/03 09:09:31;;;;;;;14.37;10.87;;;2.50;74.10;0.60;96923.00;;;;5065972;28;20442;-86
2023/12/03 09:11:59;;;;;;;14.50;10.57;;;2.60;74.40;0.70;96926.00;;;;5060997;28;20584;-86
2023/12/03 09:14:27;;;;;;;14.10;10.37;;;2.80;74.60;0.80;96934.00;;;;5064394;28;20451;-86
2023/12/03 09:16:57;;;;;;;15.03;10.80;;;2.70;74.50;0.80;96934.00;;;;5064118;28;20797;-86
2023/12/03 09:19:24;;;;;;;13.73;11.13;;;2.90;75.00;0.90;96926.00;;;;5059852;28;20797;-86
2023/12/03 09:21:52;;;;;;;13.83;10.90;;;2.80;75.00;1.00;96926.00;;;;5062604;28;20446;-86
2023/12/03 09:24:19;;;;;;;13.07;9.87;;;3.00;75.20;1.10;96927.00;;;;5064665;28;20458;-86
2023/12/03 09:26:47;;;;;;;11.80;9.90;;;3.00;75.20;1.20;96931.00;;;;5065739;28;20936;-86
2023/12/03 09:29:15;;;;;;;12.17;10.00;;;3.10;75.30;1.30;96939.00;;;;5057316;28;20795;-87
2023/12/03 09:31:42;;;;;;;12.50;9.67;;;3.30;75.80;1.40;96935.00;;;;5067159;28;20577;-85
2023/12/03 09:34:10;;;;;;;13.13;10.37;;;3.30;76.40;1.60;96951.00;;;;5061639;28;20208;-85
2023/12/03 09:36:37;;;;;;;15.63;11.10;;;3.40;76.70;1.80;96955.00;;;;5064991;28;20473;-87
2023/12/03 09:39:05;;;;;;;13.90;9.90;;;3.60;77.20;2.00;96946.00;;;;5068043;28;20302;-86
2023/12/03 09:41:33;;;;;;;11.40;9.43;;;3.80;77.30;2.20;96955.00;;;;5067608;28;20198;-86
2023/12/03 09:44:08;;;;;;;12.17;9.37;;;4.30;77.50;2.30;96957.00;;;;5055137;28;20732;-86
2023/12/03 09:46:39;;;;;;;11.53;9.27;;;4.10;76.80;2.40;96951.00;;;;5062615;28;20674;-85
2023/12/03 09:49:12;;;;;;;10.60;8.10;;;4.30;76.20;2.50;96965.00;;;;5063771;28;20193;-85
2023/12/03 09:51:42;;;;;;;9.87;8.00;;;4.50;76.10;2.50;96964.00;;;;5068635;28;20251;-84
2023/12/03 09:54:09;;;;;;;11.77;9.03;;;4.50;75.80;2.60;96962.00;;;;5069805;28;20279;-84
2023/12/03 09:56:40;;;;;;;12.60;9.40;;;4.50;75.70;2.70;96967.00;;;;5058470;28;20192;-85
2023/12/03 09:59:09;;;;;;;12.47;9.37;;;4.60;74.90;2.70;96966.00;;;;5066678;28;20258;-84
2023/12/03 10:01:38;;;;;;;12.30;9.30;;;4.70;74.60;2.80;96967.00;;;;5070157;28;20578;-85
2023/12/03 10:04:06;;;;;;;12.67;9.40;;;4.70;74.90;2.80;96966.00;;;;5063556;28;20220;-84
2023/12/03 10:06:44;;;;;;;17.50;10.63;;;4.70;74.80;2.80;96959.00;;;;5070045;28;20192;-85
2023/12/03 10:09:14;;;;;;;20.83;12.60;;;4.80;74.30;2.90;96950.00;;;;5060766;28;20192;-85
2023/12/03 10:11:48;;;;;;;15.80;10.53;;;4.80;74.00;2.90;96957.00;;;;5064617;28;20715;-85
2023/12/03 10:14:17;;;;;;;14.67;10.07;;;5.00;74.10;2.90;96947.00;;;;5060672;28;20652;-85
2023/12/03 10:16:49;;;;;;;13.53;10.30;;;4.90;74.00;3.00;96946.00;;;;5054857;28;20251;-84
2023/12/03 10:19:23;;;;;;;14.70;10.10;;;4.90;74.30;3.00;96946.00;;;;5055892;28;20193;-85
2023/12/03 10:21:53;;;;;;;14.23;10.20;;;5.00;74.70;3.20;96948.00;;;;5059590;28;20275;-85
2023/12/03 10:24:21;;;;;;;10.43;8.27;;;5.10;75.20;3.30;96935.00;;;;5056794;28;20223;-84
2023/12/03 10:26:51;;;;;;;10.80;8.60;;;5.30;75.20;3.40;96936.00;;;;5051777;28;20279;-84
2023/12/03 10:29:20;;;;;;;10.50;7.90;;;5.30;75.00;3.40;96933.00;;;;5051672;28;20201;-83
2023/12/03 10:31:48;;;;;;;10.40;8.13;;;5.30;74.60;3.50;96945.00;;;;5051058;28;20267;-85
2023/12/03 10:34:16;;;;;;;10.50;7.97;;;5.40;74.70;3.50;96942.00;;;;5058746;28;20213;-84
2023/12/03 10:36:43;;;;;;;10.50;7.90;;;5.40;74.20;3.50;96937.00;;;;5052221;28;20197;-84
2023/12/03 10:39:17;;;;;;;10.77;8.40;;;6.40;74.40;3.40;96939.00;;;;5062038;28;20717;-84
2023/12/03 10:41:46;;;;;;;11.03;8.50;;;5.40;73.50;3.40;96938.00;;;;5068229;28;20200;-84
2023/12/03 10:44:18;;;;;;;10.77;9.00;;;5.40;73.30;3.30;96943.00;;;;5058480;28;20220;-84
2023/12/03 10:46:45;;;;;;;10.40;7.77;;;5.30;72.80;3.20;96946.00;;;;5066778;28;20216;-84
2023/12/03 10:49:13;;;;;;;11.23;9.07;;;5.30;73.00;3.20;96935.00;;;;5059736;28;20193;-85
2023/12/03 10:51:43;;;;;;;13.13;8.77;;;5.20;72.90;3.10;96935.00;;;;5057992;28;20203;-84
2023/12/03 10:54:11;;;;;;;13.37;9.47;;;5.20;72.70;3.00;96941.00;;;;5059659;28;20780;-85
2023/12/03 10:56:39;;;;;;;13.60;9.80;;;5.10;72.70;2.90;96937.00;;;;5055986;28;20279;-84
2023/12/03 10:59:13;;;;;;;11.17;8.73;;;5.00;73.00;2.90;96939.00;;;;5064966;28;20634;-85
2023/12/03 11:01:47;;;;;;;11.10;9.30;;;5.00;72.80;2.80;96944.00;;;;5051846;28;20196;-84
2023/12/03 11:04:26;;;;;;;9.73;8.30;;;4.90;73.10;2.80;96935.00;;;;5056241;28;20760;-84
2023/12/03 11:06:55;;;;;;;11.40;8.73;;;4.90;73.10;2.70;96945.00;;;;5062893;28;20286;-85